Main page
METAR-TAF:

METAR-TAF

Airports :

Newquay Cornwall, England

Cornwall Airport Newquay

latitude: 50-26N, longitude: 005-00W, elevation: 119 m

Current weather observation

The report was made 30 minutes ago, at 06:50 UTC
Wind 14 kt from the West
Temperature 14°C
Humidity 77%
Pressure 1020 hPa
Visibility 10 km or more
Scattered clouds at a height of 1600 ft

METAR: EGHQ 190650Z 28014KT 9999 SCT016 14/10 Q1020

Time: 08:20 (07:20 UTC)

Forecast

The report was made 54 minutes ago, at 06:26 UTC
Forecast valid from 19 at 06 UTC to 19 at 15 UTC
Wind 14 kt from the West
Visibility 10 km or more
Scattered clouds at a height of 2000 ft
Probability 40% :
Temporary
from 19 at 06 UTC to 19 at 12 UTC
Wind 16 kt from the West with gusts up to 26 kt
Visibility: 7000 m
Broken clouds at a height of 1400 ft
rain showers

TAF: EGHQ 190626Z 1906/1915 27014KT 9999 SCT020 PROB40 TEMPO 1906/1912 28016G26KT 7000 SHRA BKN014

Weather observations and forecasts of more than 4000 airports (METAR and TAF reports).

The available stations are represented by yellow and red dots on the map.

Hover mouse over dot to see the name of the station.

Then click to see weather observations and forecasts.

To change the map : click on the green buttons with a black cross to zoom in, on the green button with a dash to zoom out, or on the green arrows for adjacent maps.


METAR-TAF: